Time;durP1;ratioP1;P1;durP2;ratioP2;P2;SDS_P1;SDS_P2;PMS_P1;PMS_P2;Temp;Humidity;BMP_temperature;BMP_pressure;BME280_temperature;BME280_humidity;BME280_pressure;Samples;Min_cycle;Max_cycle;Signal;HPM_P1;HPM_P2
2023/02/07 00:01:24;;;;;;;7.50;2.38;;;29.30;93.10;;;;;;5006566;28;20025;-62
2023/02/07 00:03:53;;;;;;;9.68;2.28;;;29.40;93.20;;;;;;5005390;28;20506;-61
2023/02/07 00:06:30;;;;;;;9.95;2.42;;;29.30;92.60;;;;;;4989086;28;20482;-61
2023/02/07 00:09:03;;;;;;;7.10;1.85;;;29.20;93.80;;;;;;5002906;28;20041;-62
2023/02/07 00:11:31;;;;;;;9.35;2.58;;;29.30;93.20;;;;;;5008024;28;20033;-62
2023/02/07 00:13:59;;;;;;;10.23;2.08;;;29.50;92.50;;;;;;5005802;28;20600;-62
2023/02/07 00:16:27;;;;;;;9.82;2.88;;;29.40;93.20;;;;;;4989832;28;20030;-61
2023/02/07 00:18:55;;;;;;;9.13;2.75;;;29.80;94.60;;;;;;5006380;28;20479;-61
2023/02/07 00:21:24;;;;;;;17.58;2.55;;;30.30;92.80;;;;;;4990407;28;20029;-62
2023/02/07 00:23:53;;;;;;;7.38;2.20;;;31.00;90.70;;;;;;5020711;28;20048;-62
2023/02/07 00:26:22;;;;;;;5.93;1.60;;;31.90;90.80;;;;;;5011584;28;20029;-63
2023/02/07 00:28:52;;;;;;;5.70;1.92;;;32.50;91.70;;;;;;5010164;28;20550;-61
2023/02/07 00:31:26;;;;;;;8.70;1.70;;;33.00;88.10;;;;;;5009016;28;20033;-62
2023/02/07 00:33:57;;;;;;;8.77;1.80;;;32.90;83.90;;;;;;5015027;28;20116;-62
2023/02/07 00:36:26;;;;;;;9.02;2.10;;;32.80;78.40;;;;;;5014680;28;20040;-61
2023/02/07 00:38:59;;;;;;;5.53;2.35;;;33.00;81.50;;;;;;5011561;28;20533;-61
2023/02/07 00:41:27;;;;;;;7.10;2.30;;;33.60;82.40;;;;;;5007399;28;20112;-63
2023/02/07 00:43:55;;;;;;;7.32;2.70;;;33.60;71.40;;;;;;5006271;28;20026;-61
2023/02/07 00:46:23;;;;;;;8.10;2.30;;;33.70;74.80;;;;;;5013613;28;20025;-63
2023/02/07 00:48:51;;;;;;;9.48;3.13;;;33.90;76.10;;;;;;5017572;28;20049;-61
2023/02/07 00:51:18;;;;;;;12.90;2.85;;;33.40;68.30;;;;;;5019517;28;20121;-61
2023/02/07 00:53:46;;;;;;;5.63;1.80;;;32.60;73.60;;;;;;5014674;28;20048;-61
2023/02/07 00:56:15;;;;;;;7.32;1.63;;;32.30;72.70;;;;;;5013042;28;20030;-61
2023/02/07 00:58:42;;;;;;;5.88;1.70;;;31.80;74.40;;;;;;5014725;28;20018;-61
2023/02/07 01:01:10;;;;;;;8.85;2.17;;;31.50;74.30;;;;;;5002532;28;20502;-61
2023/02/07 01:03:37;;;;;;;6.88;1.92;;;31.60;77.60;;;;;;5011836;28;20029;-59
2023/02/07 01:06:05;;;;;;;7.10;2.15;;;32.20;82.50;;;;;;5010494;28;20081;-60
2023/02/07 01:08:33;;;;;;;4.35;1.90;;;33.20;79.50;;;;;;5008750;28;20045;-61
2023/02/07 01:11:05;;;;;;;5.57;2.00;;;33.80;71.80;;;;;;5009198;28;20044;-61
2023/02/07 01:13:33;;;;;;;9.57;1.90;;;34.10;70.90;;;;;;5016765;28;20042;-63
2023/02/07 01:16:01;;;;;;;10.15;2.03;;;33.20;68.50;;;;;;5008599;28;20692;-61
2023/02/07 01:18:28;;;;;;;4.35;1.40;;;32.70;74.70;;;;;;5008485;28;20128;-63
2023/02/07 01:20:56;;;;;;;8.38;1.83;;;32.80;72.30;;;;;;5013220;28;20032;-62
2023/02/07 01:23:23;;;;;;;8.07;2.00;;;32.20;72.50;;;;;;5008864;28;20033;-63
2023/02/07 01:25:50;;;;;;;6.10;1.98;;;31.90;74.40;;;;;;5010709;28;20089;-60
2023/02/07 01:28:17;;;;;;;7.82;1.83;;;31.90;74.20;;;;;;5011949;28;20029;-62
2023/02/07 01:30:45;;;;;;;7.53;1.90;;;31.70;77.10;;;;;;5010323;28;20045;-65
2023/02/07 01:33:12;;;;;;;9.93;2.10;;;31.40;76.60;;;;;;5007698;28;20496;-64
2023/02/07 01:35:39;;;;;;;6.00;1.65;;;31.00;77.70;;;;;;4985782;28;20026;-66
2023/02/07 01:38:07;;;;;;;9.50;1.92;;;30.90;80.30;;;;;;5004647;28;20029;-64
2023/02/07 01:40:37;;;;;;;7.60;1.95;;;30.60;81.50;;;;;;5007673;28;20079;-66
2023/02/07 01:43:04;;;;;;;8.50;1.88;;;30.60;82.60;;;;;;5006237;28;20018;-66
2023/02/07 01:45:38;;;;;;;7.05;1.73;;;30.60;81.80;;;;;;5009535;28;20029;-66
2023/02/07 01:48:13;;;;;;;8.13;1.83;;;30.20;83.00;;;;;;5003810;28;20049;-67
2023/02/07 01:50:43;;;;;;;5.72;1.58;;;30.00;84.20;;;;;;5009201;28;20029;-67
2023/02/07 01:53:14;;;;;;;4.65;1.58;;;29.90;83.90;;;;;;5008421;28;20029;-66
2023/02/07 01:55:42;;;;;;;9.75;2.17;;;29.70;85.80;;;;;;5008747;28;20034;-66
2023/02/07 01:58:10;;;;;;;9.48;1.80;;;29.50;91.00;;;;;;5009765;28;20034;-66
2023/02/07 02:00:37;;;;;;;5.45;1.38;;;29.70;90.80;;;;;;5009613;28;20037;-66
2023/02/07 02:03:05;;;;;;;9.65;2.15;;;29.70;90.80;;;;;;5010506;28;20025;-66
2023/02/07 02:05:34;;;;;;;9.25;1.50;;;30.40;91.00;;;;;;5013841;28;20021;-67
2023/02/07 02:08:02;;;;;;;7.55;1.20;;;31.00;90.00;;;;;;5017265;28;20073;-68
2023/02/07 02:11:01;;;;;;;8.98;1.90;;;31.10;85.80;;;;;;5016604;28;20021;-66
2023/02/07 02:13:50;;;;;;;7.80;1.30;;;31.30;82.60;;;;;;4990317;28;20053;-67
2023/02/07 02:16:36;;;;;;;6.50;1.58;;;31.00;84.00;;;;;;5012210;28;20522;-66
2023/02/07 02:19:17;;;;;;;7.03;1.63;;;30.60;85.00;;;;;;5014268;28;20534;-66
2023/02/07 02:22:38;;;;;;;9.48;3.38;;;30.30;86.70;;;;;;5008909;28;20022;-67
2023/02/07 02:25:08;;;;;;;10.80;2.00;;;30.30;84.60;;;;;;4933050;28;20115;-66
2023/02/07 02:27:47;;;;;;;7.95;2.03;;;30.60;84.50;;;;;;4939135;28;20055;-66
2023/02/07 02:30:36;;;;;;;7.53;1.70;;;30.90;86.00;;;;;;4997647;28;20029;-66
2023/02/07 02:33:14;;;;;;;7.20;1.80;;;31.10;82.40;;;;;;5002879;28;20033;-66
2023/02/07 02:36:19;;;;;;;8.48;1.77;;;31.20;81.20;;;;;;5001025;28;20022;-66
2023/02/07 02:39:13;;;;;;;7.05;1.60;;;31.20;80.60;;;;;;4991483;28;20038;-66
2023/02/07 02:41:55;;;;;;;5.65;1.40;;;31.30;82.70;;;;;;5012760;28;20499;-66
2023/02/07 02:44:47;;;;;;;7.30;1.73;;;31.60;79.40;;;;;;5024899;28;20026;-66
2023/02/07 02:47:16;;;;;;;8.02;1.95;;;32.10;76.40;;;;;;5021144;28;20032;-66
2023/02/07 02:49:45;;;;;;;7.72;1.65;;;32.00;76.60;;;;;;5019267;28;20443;-66
2023/02/07 02:52:12;;;;;;;3.30;1.65;;;32.30;76.40;;;;;;5028499;28;20022;-66
2023/02/07 02:54:42;;;;;;;5.93;1.38;;;32.80;74.40;;;;;;5016519;28;20382;-66
2023/02/07 02:57:33;;;;;;;10.05;1.70;;;32.50;71.50;;;;;;5023865;28;20045;-66
2023/02/07 03:00:41;;;;;;;6.05;1.65;;;32.20;75.50;;;;;;5027539;28;20025;-67
2023/02/07 03:03:27;;;;;;;10.18;1.75;;;32.60;74.70;;;;;;4998170;28;20490;-67
2023/02/07 03:06:19;;;;;;;7.28;1.42;;;32.70;71.50;;;;;;5017268;28;20108;-64
2023/02/07 03:08:58;;;;;;;7.22;1.70;;;32.80;73.60;;;;;;5002788;28;20033;-68
2023/02/07 03:11:29;;;;;;;3.42;1.30;;;33.10;71.50;;;;;;5021328;28;20021;-67
2023/02/07 03:14:38;;;;;;;8.95;1.88;;;32.60;73.70;;;;;;5026509;28;20042;-65
2023/02/07 03:17:27;;;;;;;6.25;1.60;;;31.90;72.90;;;;;;4947628;28;20070;-65
2023/02/07 03:20:20;;;;;;;9.02;1.75;;;31.00;77.10;;;;;;5011758;28;20126;-65
2023/02/07 03:22:50;;;;;;;9.82;1.67;;;31.10;78.30;;;;;;5003140;28;20021;-64
2023/02/07 03:25:19;;;;;;;6.53;1.60;;;30.90;78.90;;;;;;5004537;28;20033;-62
2023/02/07 03:27:48;;;;;;;8.98;2.00;;;30.40;81.00;;;;;;5024906;28;20037;-61
2023/02/07 03:30:20;;;;;;;5.88;2.17;;;30.20;81.00;;;;;;5014888;28;20022;-63
2023/02/07 03:32:55;;;;;;;4.78;1.50;;;30.10;82.50;;;;;;5026097;28;20411;-63
2023/02/07 03:35:25;;;;;;;4.72;1.60;;;30.00;82.00;;;;;;5021328;28;20022;-64
2023/02/07 03:37:58;;;;;;;12.13;3.13;;;29.80;83.50;;;;;;5017243;28;20032;-65
2023/02/07 03:40:35;;;;;;;9.20;2.03;;;29.60;84.80;;;;;;5010140;28;20017;-62
2023/02/07 03:43:17;;;;;;;40.47;9.25;;;29.40;87.00;;;;;;5018633;28;20254;-65
2023/02/07 03:45:45;;;;;;;69.72;26.58;;;29.20;92.60;;;;;;5018001;28;20032;-62
2023/02/07 03:48:12;;;;;;;23.52;6.75;;;28.40;98.00;;;;;;5027357;28;20042;-64
2023/02/07 03:50:39;;;;;;;19.58;6.15;;;26.70;99.90;;;;;;5015663;28;20422;-68
2023/02/07 03:53:07;;;;;;;9.00;2.40;;;25.10;99.90;;;;;;5023125;28;20490;-69
2023/02/07 03:55:35;;;;;;;17.02;4.28;;;24.20;99.90;;;;;;5022577;28;20029;-69
2023/02/07 03:58:02;;;;;;;22.40;5.25;;;23.60;99.90;;;;;;5014510;28;20425;-69
2023/02/07 04:00:30;;;;;;;20.40;6.95;;;23.20;99.90;;;;;;5010354;28;20024;-68
2023/02/07 04:02:57;;;;;;;14.05;5.75;;;23.40;99.90;;;;;;5017572;28;20571;-66
2023/02/07 04:05:25;;;;;;;19.55;4.35;;;23.70;99.90;;;;;;5020486;28;20359;-66
2023/02/07 04:07:52;;;;;;;9.32;2.70;;;24.40;99.90;;;;;;5025129;28;20054;-66
2023/02/07 04:10:20;;;;;;;4.97;1.80;;;24.80;99.90;;;;;;5013968;28;20024;-66
2023/02/07 04:12:47;;;;;;;5.65;2.28;;;25.50;99.90;;;;;;5024960;28;20030;-66
2023/02/07 04:15:14;;;;;;;6.55;1.80;;;26.10;99.90;;;;;;5010630;28;20061;-67
2023/02/07 04:17:42;;;;;;;8.13;1.63;;;27.00;99.90;;;;;;5010182;28;20449;-67
2023/02/07 04:20:10;;;;;;;7.65;1.45;;;27.40;99.90;;;;;;5010711;28;20025;-66
2023/02/07 04:22:37;;;;;;;5.90;1.70;;;27.70;99.90;;;;;;5010458;28;20552;-66
2023/02/07 04:25:05;;;;;;;6.43;1.48;;;27.80;99.90;;;;;;5009986;28;20037;-66
2023/02/07 04:27:32;;;;;;;8.18;1.63;;;28.00;99.90;;;;;;5010054;28;20128;-68
2023/02/07 04:29:59;;;;;;;6.65;2.00;;;28.10;99.70;;;;;;5007924;28;20167;-66
2023/02/07 04:32:27;;;;;;;6.38;2.30;;;28.20;99.90;;;;;;5027078;28;20031;-66
2023/02/07 04:34:54;;;;;;;6.35;1.98;;;28.20;99.90;;;;;;5017064;28;20018;-64
2023/02/07 04:37:22;;;;;;;9.38;2.33;;;28.20;99.90;;;;;;5019833;28;20113;-65
2023/02/07 04:39:49;;;;;;;9.43;1.80;;;28.20;99.90;;;;;;5016904;28;20033;-65
2023/02/07 04:42:16;;;;;;;5.43;1.30;;;28.20;98.90;;;;;;5011387;28;20042;-65
2023/02/07 04:44:44;;;;;;;4.88;1.42;;;28.40;98.20;;;;;;5022738;28;20104;-65
2023/02/07 04:47:11;;;;;;;6.70;1.67;;;28.90;98.20;;;;;;5016797;28;20018;-65
2023/02/07 04:49:38;;;;;;;6.57;1.50;;;29.20;96.20;;;;;;5015160;28;20026;-66
2023/02/07 04:52:05;;;;;;;7.57;1.83;;;29.20;96.10;;;;;;5010089;28;20076;-66
2023/02/07 04:54:33;;;;;;;6.85;1.50;;;29.40;95.80;;;;;;5024769;28;20051;-66
2023/02/07 04:57:00;;;;;;;6.35;1.50;;;29.60;94.70;;;;;;5017334;28;20040;-66
2023/02/07 04:59:28;;;;;;;7.05;1.40;;;29.70;93.80;;;;;;5018941;28;20029;-66
2023/02/07 05:01:55;;;;;;;9.10;1.45;;;29.90;93.20;;;;;;5024984;28;20021;-66
2023/02/07 05:04:23;;;;;;;6.53;1.42;;;30.00;92.80;;;;;;5013279;28;20022;-66
2023/02/07 05:06:50;;;;;;;6.72;1.40;;;30.00;92.20;;;;;;5023618;28;20076;-65
2023/02/07 05:09:17;;;;;;;4.82;1.20;;;30.00;92.70;;;;;;5019570;28;20368;-64
2023/02/07 05:11:45;;;;;;;4.30;1.30;;;30.00;91.60;;;;;;5016089;28;20116;-65
2023/02/07 05:14:12;;;;;;;3.97;1.27;;;30.10;91.70;;;;;;5025784;28;20033;-65
2023/02/07 05:16:39;;;;;;;8.52;1.70;;;30.30;90.50;;;;;;5014160;28;20026;-66
2023/02/07 05:19:07;;;;;;;8.32;1.88;;;30.10;90.30;;;;;;5025328;28;20061;-65
2023/02/07 05:21:34;;;;;;;10.27;1.88;;;30.00;90.00;;;;;;4998209;28;20037;-64
2023/02/07 05:24:01;;;;;;;4.85;1.20;;;29.90;88.30;;;;;;5024893;28;20083;-67
2023/02/07 05:26:29;;;;;;;5.88;1.50;;;29.70;88.30;;;;;;4995505;28;20146;-67
2023/02/07 05:28:56;;;;;;;4.88;1.52;;;29.40;89.70;;;;;;5022616;28;20030;-68
2023/02/07 05:33:02;;;;;;;6.03;1.00;;;29.10;90.20;;;;;;5019827;28;20466;-66
2023/02/07 05:34:10;;;;;;;4.63;1.23;;;28.70;90.70;;;;;;5012446;28;20522;-61
2023/02/07 05:36:38;;;;;;;5.53;1.40;;;28.20;91.20;;;;;;5025338;28;20106;-61
2023/02/07 05:39:05;;;;;;;4.97;1.73;;;27.90;91.50;;;;;;5017215;28;20072;-60
2023/02/07 05:41:33;;;;;;;7.43;1.50;;;27.60;92.40;;;;;;5017243;28;20032;-61
2023/02/07 05:44:00;;;;;;;8.82;1.15;;;27.40;92.80;;;;;;5025065;28;20067;-61
2023/02/07 05:46:28;;;;;;;7.43;1.42;;;27.30;93.20;;;;;;5012872;28;20026;-61
2023/02/07 05:48:55;;;;;;;7.47;1.13;;;27.40;93.00;;;;;;5004856;28;20037;-61
2023/02/07 05:51:22;;;;;;;11.00;2.00;;;27.30;92.90;;;;;;5019500;28;20034;-62
2023/02/07 05:53:50;;;;;;;7.25;1.77;;;27.30;93.40;;;;;;5014841;28;20545;-62
2023/02/07 05:56:18;;;;;;;6.10;1.92;;;27.30;93.70;;;;;;5025565;28;20030;-62
2023/02/07 05:58:45;;;;;;;6.78;1.50;;;27.20;93.70;;;;;;5014101;28;20014;-62
2023/02/07 06:01:13;;;;;;;5.80;1.38;;;27.10;94.20;;;;;;5019928;28;20028;-62
2023/02/07 06:03:40;;;;;;;10.00;1.90;;;27.00;94.60;;;;;;5021657;28;20025;-62
2023/02/07 06:06:07;;;;;;;9.13;1.50;;;27.00;94.90;;;;;;5012833;28;20022;-61
2023/02/07 06:08:34;;;;;;;6.25;1.40;;;26.90;95.50;;;;;;4996451;28;20490;-61
2023/02/07 06:11:02;;;;;;;4.90;1.15;;;27.00;95.20;;;;;;5021730;28;20018;-63
2023/02/07 06:13:29;;;;;;;6.57;2.38;;;26.90;94.60;;;;;;5019894;28;20124;-62
2023/02/07 06:15:56;;;;;;;9.27;1.90;;;26.90;95.00;;;;;;5014450;28;20034;-62
2023/02/07 06:18:24;;;;;;;9.13;1.52;;;26.90;94.60;;;;;;5023755;28;20522;-63
2023/02/07 06:20:51;;;;;;;7.07;1.23;;;27.00;95.00;;;;;;5024485;28;20052;-62
2023/02/07 06:23:21;;;;;;;6.90;1.23;;;27.10;94.40;;;;;;5022381;28;20017;-62
2023/02/07 06:25:49;;;;;;;2.90;1.00;;;27.00;95.00;;;;;;5018910;28;20040;-62
2023/02/07 06:28:16;;;;;;;8.52;1.20;;;27.00;93.80;;;;;;5011094;28;20037;-62
2023/02/07 06:30:44;;;;;;;5.40;1.27;;;26.90;94.80;;;;;;5017595;28;20018;-62
2023/02/07 06:33:12;;;;;;;5.53;1.15;;;26.80;95.30;;;;;;5005924;28;20037;-62
2023/02/07 06:35:45;;;;;;;5.22;1.55;;;26.70;93.60;;;;;;5025041;28;20022;-60
2023/02/07 06:38:17;;;;;;;5.07;1.20;;;26.50;95.10;;;;;;5015743;28;20030;-62
2023/02/07 06:40:45;;;;;;;3.60;1.10;;;26.50;95.20;;;;;;5027467;28;20422;-65
2023/02/07 06:43:12;;;;;;;5.95;1.40;;;26.40;95.60;;;;;;5020979;28;20030;-62
2023/02/07 06:45:39;;;;;;;6.45;1.38;;;26.20;95.80;;;;;;5019497;28;20030;-61
2023/02/07 06:48:07;;;;;;;6.30;1.40;;;26.10;96.60;;;;;;5028616;28;20285;-62
2023/02/07 06:50:35;;;;;;;7.00;1.42;;;26.00;96.90;;;;;;5016121;28;20526;-61
2023/02/07 06:53:02;;;;;;;4.20;0.90;;;26.00;97.10;;;;;;5027258;28;20100;-63
2023/02/07 06:55:31;;;;;;;4.65;1.10;;;26.00;96.70;;;;;;5027900;28;20025;-62
2023/02/07 06:57:58;;;;;;;11.15;2.20;;;25.90;96.40;;;;;;5027663;28;20036;-61
2023/02/07 07:00:26;;;;;;;10.00;1.55;;;25.90;96.80;;;;;;5014898;28;20034;-62
2023/02/07 07:02:53;;;;;;;7.70;1.13;;;25.80;96.60;;;;;;5031001;28;20075;-62
2023/02/07 07:05:20;;;;;;;6.78;1.38;;;25.80;96.20;;;;;;5028578;28;20022;-62
2023/02/07 07:07:48;;;;;;;4.00;0.90;;;25.70;97.70;;;;;;5026645;28;20114;-62
2023/02/07 07:10:15;;;;;;;6.82;0.95;;;25.60;98.00;;;;;;5015311;28;20105;-62
2023/02/07 07:12:43;;;;;;;11.02;1.58;;;25.60;98.60;;;;;;5026841;28;20026;-62
2023/02/07 07:15:10;;;;;;;4.72;1.40;;;25.60;99.30;;;;;;5020384;28;20128;-61
2023/02/07 07:17:37;;;;;;;4.50;1.05;;;25.60;99.60;;;;;;5019192;28;20542;-61
2023/02/07 07:20:06;;;;;;;5.28;1.55;;;25.60;99.80;;;;;;5027774;28;20029;-62
2023/02/07 07:22:34;;;;;;;6.13;1.15;;;25.60;99.90;;;;;;5002246;28;20027;-62
2023/02/07 07:25:03;;;;;;;5.07;1.40;;;25.60;99.90;;;;;;5024254;28;20092;-63
2023/02/07 07:27:30;;;;;;;8.23;1.83;;;25.60;99.90;;;;;;5023000;28;20565;-62
2023/02/07 07:29:57;;;;;;;6.18;1.75;;;25.60;99.50;;;;;;5017062;28;20487;-62
2023/02/07 07:32:25;;;;;;;4.47;1.27;;;25.60;99.30;;;;;;5026489;28;20118;-62
2023/02/07 07:34:53;;;;;;;4.78;1.00;;;25.50;99.50;;;;;;5017769;28;20028;-61
2023/02/07 07:37:20;;;;;;;5.72;1.23;;;25.50;99.90;;;;;;5014716;28;20038;-62
2023/02/07 07:39:48;;;;;;;6.68;1.30;;;25.40;99.90;;;;;;5010373;28;20112;-61
2023/02/07 07:42:15;;;;;;;8.68;1.38;;;25.40;99.80;;;;;;5016074;28;20022;-62
2023/02/07 07:44:42;;;;;;;7.90;1.35;;;25.30;99.90;;;;;;5003682;28;20689;-60
2023/02/07 07:47:09;;;;;;;4.93;1.25;;;25.20;99.90;;;;;;5009329;28;20029;-60
2023/02/07 07:49:37;;;;;;;10.55;1.52;;;25.20;99.90;;;;;;4991146;28;20506;-60
2023/02/07 07:52:04;;;;;;;6.95;1.50;;;25.20;99.90;;;;;;5010743;28;20782;-61
2023/02/07 07:54:31;;;;;;;6.45;1.30;;;25.10;99.90;;;;;;5014545;28;20041;-61
2023/02/07 07:56:59;;;;;;;7.03;1.65;;;25.10;99.90;;;;;;5012686;28;20021;-60
2023/02/07 07:59:26;;;;;;;6.60;1.48;;;25.00;99.90;;;;;;5014027;28;20536;-60
2023/02/07 08:01:53;;;;;;;7.57;1.48;;;25.00;99.90;;;;;;5005060;28;20034;-60
2023/02/07 08:04:21;;;;;;;8.80;1.88;;;25.00;99.90;;;;;;5009423;28;20643;-60
2023/02/07 08:06:48;;;;;;;8.25;1.60;;;25.00;99.90;;;;;;5008673;28;20014;-60
2023/02/07 08:09:15;;;;;;;7.68;2.30;;;24.90;99.90;;;;;;5008684;28;20510;-60
2023/02/07 08:11:42;;;;;;;4.40;1.70;;;24.90;99.90;;;;;;5024934;28;20029;-60
2023/02/07 08:14:10;;;;;;;8.25;1.65;;;24.90;99.90;;;;;;5010175;28;20054;-60
2023/02/07 08:16:40;;;;;;;5.85;1.40;;;24.90;99.90;;;;;;5017693;28;20056;-60
2023/02/07 08:19:07;;;;;;;9.30;2.90;;;24.90;99.90;;;;;;5000287;28;20045;-60
2023/02/07 08:21:35;;;;;;;8.90;2.00;;;24.80;99.90;;;;;;4990104;28;20046;-61
2023/02/07 08:24:02;;;;;;;9.73;1.90;;;24.80;99.90;;;;;;5008529;28;20026;-61
2023/02/07 08:26:30;;;;;;;5.53;1.45;;;24.80;99.90;;;;;;5011770;28;20718;-60
2023/02/07 08:28:57;;;;;;;5.75;1.17;;;24.70;99.90;;;;;;5010777;28;20530;-61
2023/02/07 08:31:24;;;;;;;7.50;1.00;;;24.70;99.90;;;;;;5011136;28;20030;-62
2023/02/07 08:33:52;;;;;;;6.10;1.40;;;24.60;99.90;;;;;;5012246;28;20105;-61
2023/02/07 08:36:20;;;;;;;4.35;1.30;;;24.60;99.90;;;;;;5007203;28;20476;-59
2023/02/07 08:38:47;;;;;;;8.85;1.52;;;24.50;99.90;;;;;;5011374;28;20092;-60
2023/02/07 08:41:14;;;;;;;8.38;1.48;;;24.50;99.90;;;;;;5011221;28;20061;-60
2023/02/07 08:43:42;;;;;;;4.88;1.20;;;24.50;99.90;;;;;;5009583;28;20418;-58
2023/02/07 08:46:09;;;;;;;6.85;1.80;;;24.40;99.90;;;;;;5008788;28;20040;-58
2023/02/07 08:48:36;;;;;;;4.03;1.40;;;24.30;99.90;;;;;;5008947;28;20067;-59
2023/02/07 08:51:09;;;;;;;5.38;1.50;;;24.30;99.90;;;;;;5017098;28;20026;-59
2023/02/07 08:53:36;;;;;;;4.68;1.13;;;24.30;99.90;;;;;;5011388;28;20025;-59
2023/02/07 08:56:04;;;;;;;5.65;1.13;;;24.30;99.90;;;;;;5006687;28;20025;-58
2023/02/07 08:58:32;;;;;;;6.70;1.58;;;24.20;99.90;;;;;;5012476;28;20494;-63
2023/02/07 09:00:59;;;;;;;6.95;1.65;;;24.20;99.90;;;;;;5016451;28;20036;-59
2023/02/07 09:03:27;;;;;;;9.07;2.40;;;24.20;99.90;;;;;;5011630;28;20022;-58
2023/02/07 09:05:58;;;;;;;7.63;1.77;;;24.10;99.90;;;;;;5010530;28;20109;-59
2023/02/07 09:08:25;;;;;;;6.30;1.55;;;24.10;99.90;;;;;;5009563;28;20040;-58
2023/02/07 09:10:53;;;;;;;8.38;1.50;;;24.10;99.90;;;;;;5006447;28;20045;-59
2023/02/07 09:13:20;;;;;;;5.85;1.38;;;24.10;99.90;;;;;;5016830;28;20091;-59
2023/02/07 09:15:57;;;;;;;5.00;1.30;;;24.10;99.90;;;;;;5014871;28;20022;-60
2023/02/07 09:18:25;;;;;;;10.00;2.00;;;24.10;99.90;;;;;;5016734;28;20417;-59
2023/02/07 09:20:53;;;;;;;7.50;1.63;;;24.10;99.90;;;;;;5017804;28;20056;-58
2023/02/07 09:23:20;;;;;;;6.00;1.35;;;24.00;99.90;;;;;;5007455;28;20079;-59
2023/02/07 09:25:51;;;;;;;6.55;1.17;;;24.00;99.90;;;;;;5018229;28;20034;-59
2023/02/07 09:28:20;;;;;;;5.45;1.17;;;24.00;99.90;;;;;;5011322;28;20038;-60
2023/02/07 09:30:48;;;;;;;7.55;1.38;;;24.00;99.90;;;;;;5012673;28;20029;-60
2023/02/07 09:33:16;;;;;;;8.50;1.25;;;23.90;99.90;;;;;;5016022;28;20035;-60
2023/02/07 09:35:45;;;;;;;6.18;1.27;;;23.90;99.90;;;;;;5013622;28;20021;-59
2023/02/07 09:38:15;;;;;;;7.47;1.45;;;23.90;99.90;;;;;;5011958;28;20108;-59
2023/02/07 09:40:44;;;;;;;9.65;1.50;;;23.90;99.90;;;;;;5006831;28;20430;-59
2023/02/07 09:43:20;;;;;;;7.05;1.50;;;23.80;99.90;;;;;;5004773;28;20044;-59
2023/02/07 09:45:53;;;;;;;7.70;1.25;;;23.80;99.90;;;;;;4992655;28;20057;-59
2023/02/07 09:48:26;;;;;;;9.48;1.40;;;23.80;99.90;;;;;;4994077;28;20383;-59
2023/02/07 09:50:58;;;;;;;5.20;1.27;;;23.80;99.90;;;;;;5007168;28;20032;-59
2023/02/07 09:53:49;;;;;;;5.32;2.05;;;23.80;99.90;;;;;;5011231;28;20528;-60
2023/02/07 09:56:19;;;;;;;8.85;1.98;;;23.70;99.90;;;;;;5011365;28;20049;-59
2023/02/07 09:58:52;;;;;;;8.23;1.27;;;23.70;99.90;;;;;;4992642;28;20032;-59
2023/02/07 10:01:31;;;;;;;4.53;1.35;;;23.70;99.90;;;;;;5021216;28;20526;-59
2023/02/07 10:04:05;;;;;;;6.95;1.50;;;23.60;99.90;;;;;;5017509;28;20038;-58
2023/02/07 10:06:34;;;;;;;6.67;1.70;;;23.60;99.90;;;;;;5022826;28;20033;-59
2023/02/07 10:09:01;;;;;;;7.78;2.55;;;23.50;99.90;;;;;;5008871;28;20147;-59
2023/02/07 10:12:02;;;;;;;9.82;1.40;;;23.50;99.90;;;;;;5007706;28;20026;-57
2023/02/07 10:14:51;;;;;;;7.15;1.38;;;23.40;99.90;;;;;;5010904;28;20049;-58
2023/02/07 10:18:00;;;;;;;6.43;1.42;;;23.40;99.90;;;;;;5019391;28;20037;-60
2023/02/07 10:20:54;;;;;;;4.75;1.50;;;23.30;99.90;;;;;;5022291;28;20044;-60
2023/02/07 10:23:33;;;;;;;7.57;1.92;;;23.30;99.90;;;;;;5002387;28;20041;-59
2023/02/07 10:26:41;;;;;;;7.40;1.98;;;23.20;99.90;;;;;;5010583;28;20375;-58
2023/02/07 10:29:26;;;;;;;7.97;1.50;;;23.20;99.90;;;;;;4933698;29;20122;-58
2023/02/07 10:31:58;;;;;;;5.57;1.63;;;23.10;99.90;;;;;;5006613;28;20030;-58
2023/02/07 10:34:33;;;;;;;3.97;1.10;;;23.00;99.90;;;;;;5009725;28;20109;-58
2023/02/07 10:37:13;;;;;;;9.07;1.75;;;22.90;99.90;;;;;;5012501;28;20017;-58
2023/02/07 10:39:45;;;;;;;14.43;2.10;;;22.90;99.90;;;;;;5003053;28;20053;-58
2023/02/07 10:42:15;;;;;;;9.40;1.63;;;22.80;99.90;;;;;;5005350;28;20037;-58
2023/02/07 10:44:43;;;;;;;7.25;1.35;;;22.70;99.90;;;;;;5003946;28;20018;-59
2023/02/07 10:47:16;;;;;;;10.60;1.80;;;22.70;99.90;;;;;;5013756;28;20132;-58
2023/02/07 10:49:47;;;;;;;6.45;1.30;;;22.50;99.90;;;;;;5010116;28;20196;-58
2023/02/07 10:52:34;;;;;;;6.70;1.60;;;22.50;99.90;;;;;;5008302;28;20033;-59
2023/02/07 10:55:05;;;;;;;6.82;1.88;;;22.40;99.90;;;;;;5012231;28;20041;-62
2023/02/07 10:57:32;;;;;;;7.40;1.90;;;22.40;99.90;;;;;;5017706;28;20487;-59
2023/02/07 11:00:09;;;;;;;9.75;1.67;;;22.40;99.90;;;;;;5006721;28;20033;-58
2023/02/07 11:02:47;;;;;;;8.48;1.77;;;22.40;99.90;;;;;;5009662;28;20024;-60
2023/02/07 11:05:17;;;;;;;6.30;1.50;;;22.30;99.90;;;;;;5016750;28;20117;-58
2023/02/07 11:08:21;;;;;;;6.75;1.38;;;22.30;99.90;;;;;;5014473;28;20037;-58
2023/02/07 11:10:51;;;;;;;4.95;1.25;;;22.20;99.90;;;;;;4977454;28;20045;-59
2023/02/07 11:13:22;;;;;;;5.35;1.20;;;22.20;99.90;;;;;;5014119;28;20160;-58
2023/02/07 11:15:52;;;;;;;7.57;1.45;;;22.20;99.90;;;;;;5010947;28;20021;-58
2023/02/07 11:18:36;;;;;;;6.45;1.35;;;22.10;99.90;;;;;;5009256;28;20688;-59
2023/02/07 11:21:05;;;;;;;6.50;2.40;;;22.20;99.90;;;;;;5017108;28;20451;-58
2023/02/07 11:23:33;;;;;;;9.60;1.63;;;22.10;99.90;;;;;;5020844;28;20084;-58
2023/02/07 11:26:03;;;;;;;7.53;1.50;;;22.10;99.90;;;;;;5015327;28;20022;-58
2023/02/07 11:28:32;;;;;;;9.13;1.40;;;22.00;99.90;;;;;;5018682;28;20052;-58
2023/02/07 11:31:06;;;;;;;9.60;1.42;;;22.00;99.90;;;;;;5015230;28;20030;-58
2023/02/07 11:33:36;;;;;;;4.53;1.20;;;22.00;99.90;;;;;;5013958;28;20022;-59
2023/02/07 11:36:10;;;;;;;7.53;1.70;;;22.00;99.90;;;;;;5011629;28;20037;-59
2023/02/07 11:38:41;;;;;;;;;;;22.10;99.90;;;;;;5015355;28;20021;-58
2023/02/07 11:41:18;;;;;;;5.20;1.30;;;22.10;99.90;;;;;;5016780;28;19909;-58
2023/02/07 11:44:16;;;;;;;5.78;1.33;;;22.20;99.90;;;;;;5006406;28;20029;-58
2023/02/07 11:46:46;;;;;;;7.55;2.13;;;22.20;99.90;;;;;;5010899;28;20037;-58
2023/02/07 11:49:42;;;;;;;7.07;2.13;;;22.20;99.90;;;;;;5014324;28;20033;-59
2023/02/07 11:52:10;;;;;;;6.45;1.42;;;22.30;99.90;;;;;;5025908;28;20037;-59
2023/02/07 11:54:40;;;;;;;9.55;1.92;;;22.30;99.90;;;;;;5015999;28;20030;-58
2023/02/07 11:57:12;;;;;;;7.35;1.92;;;22.30;99.90;;;;;;5012564;28;20037;-58
2023/02/07 12:00:09;;;;;;;6.35;1.50;;;22.20;99.90;;;;;;5017290;28;20030;-58
2023/02/07 12:02:37;;;;;;;5.75;1.63;;;22.20;99.90;;;;;;5012482;28;20517;-58
2023/02/07 12:05:26;;;;;;;9.07;2.33;;;22.20;99.90;;;;;;5018732;28;20029;-58
2023/02/07 12:08:04;;;;;;;5.53;1.20;;;22.10;99.90;;;;;;5013071;28;20034;-57
2023/02/07 12:10:37;;;;;;;7.82;1.63;;;22.00;99.90;;;;;;5012690;28;20097;-59
2023/02/07 12:13:29;;;;;;;5.63;1.13;;;21.90;99.90;;;;;;5018294;28;20048;-58
2023/02/07 12:16:10;;;;;;;4.78;1.30;;;21.70;99.90;;;;;;5015223;28;20087;-59
2023/02/07 12:18:55;;;;;;;7.85;1.75;;;21.60;99.90;;;;;;5021216;28;20419;-60
2023/02/07 12:21:49;;;;;;;5.75;1.35;;;21.50;99.90;;;;;;5015112;28;20022;-59
2023/02/07 12:24:35;;;;;;;7.70;1.65;;;21.40;99.90;;;;;;5014117;28;20438;-60
2023/02/07 12:27:14;;;;;;;6.22;1.63;;;21.30;99.90;;;;;;5022660;28;20060;-58
2023/02/07 12:30:15;;;;;;;8.48;1.70;;;21.20;99.90;;;;;;5013138;28;20403;-58
2023/02/07 12:33:12;;;;;;;7.97;1.70;;;21.10;99.90;;;;;;4999405;28;20026;-58
2023/02/07 12:36:01;;;;;;;10.18;1.77;;;21.10;99.90;;;;;;4954575;28;20039;-59
2023/02/07 12:38:43;;;;;;;9.20;1.80;;;21.00;99.90;;;;;;5000169;28;20112;-59
2023/02/07 12:41:35;;;;;;;5.97;1.77;;;20.90;99.90;;;;;;5018050;28;20486;-59
2023/02/07 12:44:34;;;;;;;6.50;1.88;;;20.80;99.90;;;;;;5013059;28;20656;-60
2023/02/07 12:47:06;;;;;;;12.98;1.90;;;20.70;99.90;;;;;;5001728;28;20014;-61
2023/02/07 12:49:44;;;;;;;8.55;2.10;;;20.60;99.90;;;;;;5021812;28;20129;-59
2023/02/07 12:52:23;;;;;;;5.50;2.00;;;20.50;99.90;;;;;;4999231;28;20384;-60
2023/02/07 12:55:03;;;;;;;9.27;1.80;;;20.40;99.90;;;;;;4996714;28;20152;-58
2023/02/07 12:58:03;;;;;;;5.68;1.75;;;20.30;99.90;;;;;;5009036;28;20125;-59
2023/02/07 13:01:21;;;;;;;7.85;2.03;;;20.20;99.90;;;;;;5025477;28;20454;-58
2023/02/07 13:04:16;;;;;;;9.77;1.50;;;20.10;99.90;;;;;;4948618;28;20041;-58
2023/02/07 13:07:01;;;;;;;7.78;3.53;;;20.10;99.90;;;;;;5011861;28;20482;-59
2023/02/07 13:09:47;;;;;;;7.95;2.00;;;20.10;99.90;;;;;;5020931;28;20033;-61
2023/02/07 13:12:16;;;;;;;16.95;2.30;;;20.30;99.90;;;;;;5020159;28;20455;-58
2023/02/07 13:15:20;;;;;;;6.10;1.65;;;20.40;99.90;;;;;;5005786;28;20042;-59